Bangkok (Don Mueang), Thailand

3:53 PM ICT on September 28, 2016 (GMT +0700)
Soi Ekkarat 15/2 | | Change Station

Elev 19 ft 13.96 °N, 100.60 °E | Updated 2 minutes ago

Scattered Clouds
Scattered Clouds
84.7 °F
Feels Like 96 °F
N
6.2
Wind Variable Wind from South
Gusts 15.5 mph

Today
High -- | Low -- °F
--% Chance of Precip.
Yesterday
High -- | Low -- °F
Precip. -- in
Pressure 29.62 in
Visibility 6.2 miles
Clouds Few 2000 ft
Scattered Clouds 4000 ft
Heat Index 96 °F
Dew Point 78 °F
Humidity 81%
Rainfall 0.46 in
Snow Depth Not available.
6:06 AM 6:09 PM
Waning Crescent, 7% visible
METAR VTBD 280830Z 30007KT 260V340 9999 FEW020 SCT040 33/25 Q1003 NOSIG
Pressure 29.62 in
Visibility 6.2 miles
Clouds Few 2000 ft
Scattered Clouds 4000 ft
Heat Index 96 °F
Dew Point 78 °F
Humidity 81%
Rainfall 0.46 in
Snow Depth Not available.
6:06 AM 6:09 PM
Waning Crescent, 7% visible
METAR VTBD 280830Z 30007KT 260V340 9999 FEW020 SCT040 33/25 Q1003 NOSIG

10-Day Weather Forecast

No radar image for this location.
×

Almanac

Astronomy

Sep. 28, 2016 Rise Set
Actual Time
Civil Twilight
Nautical Twilight
Astronomical Twilight
Moon
Length of Visible Light
Length of Day
Tomorrow will be .
, % of the Moon is Illuminated

Today's Extremes

Country Highs Country Lows

Community

WunderPhotos

Upload Photos

1,942,216 photos uploaded!

WunderBlog® & News

Nearby

Air Quality

  Air Quality AQ Index Pollutant
Not available.

Snow Depth

Station Depth Elevation

Earthquake Activity

City Distance Mag. Time & Date
Minimum magnitude displayed is 2.5.

Coastal Water Temperatures

Place Temperature

Stations

Nearby Weather Stations

Station Location Temp. Windchill Dew Point Humidity Wind Precip. Elev Updated Type